Time;durP1;ratioP1;P1;durP2;ratioP2;P2;SDS_P1;SDS_P2;PMS_P1;PMS_P2;Temp;Humidity;BMP_temperature;BMP_pressure;BME280_temperature;BME280_humidity;BME280_pressure;Samples;Min_cycle;Max_cycle;Signal;HPM_P1;HPM_P2
2022/08/05 00:01:20;;;;;;;2.72;2.53;;;24.30;76.20;;;24.58;55.32;96814.69;4990593;28;20068;-42
2022/08/05 00:03:47;;;;;;;3.03;2.22;;;24.30;76.30;;;24.55;55.54;96809.59;4989318;28;20552;-43
2022/08/05 00:06:14;;;;;;;2.70;2.42;;;24.30;76.50;;;24.53;57.17;96810.75;4989869;28;20120;-42
2022/08/05 00:08:40;;;;;;;4.18;2.67;;;24.30;77.80;;;24.47;59.20;96805.97;4990773;28;20022;-44
2022/08/05 00:11:12;;;;;;;3.85;2.90;;;24.20;79.50;;;24.39;59.86;96806.78;4988237;28;20033;-42
2022/08/05 00:13:42;;;;;;;3.90;2.95;;;24.20;79.70;;;24.35;59.88;96810.75;4981927;28;20571;-42
2022/08/05 00:16:10;;;;;;;4.15;3.45;;;24.20;80.10;;;24.31;61.03;96814.78;4961627;28;20037;-41
2022/08/05 00:18:37;;;;;;;3.97;2.90;;;24.10;80.70;;;24.25;61.45;96818.94;4991718;28;20404;-45
2022/08/05 00:21:04;;;;;;;3.85;3.38;;;24.00;81.10;;;24.19;62.74;96812.34;4978788;28;20038;-43
2022/08/05 00:23:29;;;;;;;3.80;3.08;;;24.00;81.90;;;24.13;63.17;96810.25;4996234;28;20065;-44
2022/08/05 00:25:55;;;;;;;5.30;2.88;;;24.00;82.60;;;24.09;63.25;96819.66;4995699;28;20156;-42
2022/08/05 00:28:21;;;;;;;6.60;3.20;;;23.90;82.60;;;24.12;62.50;96816.66;4994300;28;20481;-41
2022/08/05 00:30:46;;;;;;;2.72;2.47;;;23.90;82.20;;;24.08;61.09;96801.78;4999386;28;20065;-41
2022/08/05 00:33:12;;;;;;;4.05;2.78;;;24.00;81.30;;;24.23;61.18;96818.28;4998663;28;20029;-42
2022/08/05 00:35:38;;;;;;;2.90;2.45;;;24.00;81.30;;;24.27;60.32;96822.34;4982266;28;20564;-43
2022/08/05 00:38:04;;;;;;;3.22;2.90;;;24.00;80.90;;;24.26;59.50;96830.56;4997034;28;20071;-42
2022/08/05 00:40:29;;;;;;;4.10;2.65;;;24.00;80.20;;;24.26;59.76;96831.41;4996571;28;20038;-41
2022/08/05 00:43:00;;;;;;;3.28;2.42;;;24.10;80.40;;;24.22;59.49;96837.28;4998115;28;20477;-42
2022/08/05 00:45:27;;;;;;;3.03;2.50;;;24.00;80.10;;;24.15;58.98;96839.75;4996365;28;20076;-42
2022/08/05 00:47:52;;;;;;;2.60;2.22;;;23.90;79.80;;;24.08;58.55;96839.50;4998363;28;20037;-43
2022/08/05 00:50:18;;;;;;;3.35;2.38;;;23.90;79.40;;;24.05;58.42;96852.44;4993804;28;20490;-41
2022/08/05 00:52:44;;;;;;;3.88;2.92;;;23.90;79.40;;;23.98;60.22;96850.38;5000561;28;20359;-42
2022/08/05 00:55:11;;;;;;;4.70;3.33;;;23.80;80.70;;;23.96;64.60;96856.94;4982982;28;20049;-44
2022/08/05 00:57:36;;;;;;;6.03;3.20;;;23.80;83.40;;;23.85;65.20;96859.81;4995277;28;20030;-42
2022/08/05 01:00:05;;;;;;;5.93;2.95;;;23.70;84.00;;;23.72;67.17;96857.47;4995468;28;20126;-41
2022/08/05 01:02:31;;;;;;;4.40;2.63;;;23.60;85.40;;;23.66;59.94;96858.09;4999670;28;20022;-41
2022/08/05 01:04:56;;;;;;;3.17;2.55;;;23.50;80.10;;;23.53;62.57;96867.38;4999887;28;20044;-42
2022/08/05 01:07:22;;;;;;;2.47;2.10;;;23.40;82.80;;;23.49;59.63;96863.31;4994729;28;20022;-41
2022/08/05 01:09:48;;;;;;;5.22;2.50;;;23.40;80.60;;;23.48;55.45;96868.84;4995764;28;20385;-43
2022/08/05 01:12:19;;;;;;;5.60;2.58;;;23.30;78.20;;;23.36;56.81;96854.72;4997642;28;20061;-41
2022/08/05 01:14:58;;;;;;;3.05;2.28;;;23.30;78.60;;;23.41;56.13;96864.03;4996286;28;20030;-41
2022/08/05 01:17:44;;;;;;;4.32;2.35;;;23.30;78.20;;;23.37;57.23;96869.88;4977053;28;20164;-41
2022/08/05 01:20:47;;;;;;;5.93;2.20;;;23.30;78.80;;;23.37;57.67;96865.34;4982127;28;20045;-43
2022/08/05 01:24:01;;;;;;;6.35;2.40;;;23.20;79.40;;;23.44;57.93;96866.44;5039638;23;20056;-51
2022/08/05 01:26:55;;;;;;;5.55;2.47;;;23.20;79.70;;;23.42;58.74;96878.34;5015970;28;20029;-47
2022/08/05 01:29:31;;;;;;;3.03;2.25;;;23.30;80.10;;;23.41;59.31;96877.47;5014614;28;20147;-50
2022/08/05 01:32:02;;;;;;;6.43;2.30;;;23.30;80.80;;;23.37;60.19;96888.72;5020250;28;20507;-51
2022/08/05 01:34:38;;;;;;;4.27;2.33;;;23.20;81.20;;;23.37;60.94;96888.72;5029658;28;20040;-51
2022/08/05 01:37:31;;;;;;;3.30;2.42;;;23.20;81.80;;;23.34;61.55;96891.69;5014701;28;20044;-49
2022/08/05 01:39:58;;;;;;;3.88;2.13;;;23.20;82.30;;;23.36;61.95;96906.69;5028954;28;21148;-47
2022/08/05 01:42:26;;;;;;;2.78;2.20;;;23.30;82.70;;;23.33;62.61;96898.06;5007723;28;20132;-47
2022/08/05 01:44:58;;;;;;;3.50;2.53;;;23.20;83.10;;;23.38;63.02;96912.78;5004253;28;20061;-48
2022/08/05 01:47:24;;;;;;;5.97;2.38;;;23.30;83.40;;;23.38;63.63;96907.41;5010776;28;20127;-51
2022/08/05 01:49:52;;;;;;;8.45;2.53;;;23.30;83.90;;;23.37;63.21;96904.84;5010996;28;20486;-47
2022/08/05 01:52:20;;;;;;;5.60;2.47;;;23.30;83.70;;;23.34;64.04;96916.75;5008712;28;20029;-47
2022/08/05 01:54:51;;;;;;;3.95;2.33;;;23.30;84.20;;;23.28;64.30;96909.28;5022709;28;20112;-47
2022/08/05 01:57:37;;;;;;;7.22;2.33;;;23.20;84.50;;;23.33;64.60;96920.44;5027225;28;20123;-50
2022/08/05 02:00:11;;;;;;;3.75;2.30;;;23.20;84.80;;;23.31;65.27;96918.88;5003107;28;20041;-50
2022/08/05 02:02:42;;;;;;;2.83;2.17;;;23.20;85.30;;;23.25;65.75;96912.25;5010646;28;20041;-47
2022/08/05 02:05:11;;;;;;;4.90;2.40;;;23.20;86.50;;;23.19;65.81;96920.94;5013854;28;20038;-50
2022/08/05 02:07:41;;;;;;;3.38;1.98;;;23.10;85.80;;;23.14;66.54;96917.84;5012104;28;20440;-49
2022/08/05 02:10:08;;;;;;;4.13;2.25;;;23.10;86.30;;;23.06;67.43;96924.78;5010100;28;20400;-51
2022/08/05 02:12:53;;;;;;;4.50;2.33;;;23.00;86.70;;;23.01;67.33;96923.50;4994030;28;20049;-48
2022/08/05 02:15:28;;;;;;;5.75;2.83;;;23.00;86.90;;;22.97;68.01;96919.38;5014730;28;20035;-47
2022/08/05 02:18:10;;;;;;;3.55;1.98;;;22.90;87.20;;;22.90;68.05;96924.53;5018216;28;20115;-48
2022/08/05 02:23:52;;;;;;;6.63;2.03;;;22.80;87.80;;;22.79;69.01;96921.97;5052114;27;20407;-48
2022/08/05 02:26:24;;;;;;;3.92;2.20;;;22.80;88.30;;;22.74;69.52;96933.19;5049493;28;20060;-47
2022/08/05 02:28:51;;;;;;;3.13;2.10;;;22.70;88.60;;;22.69;69.93;96933.59;5049174;28;20269;-50
2022/08/05 02:31:25;;;;;;;4.55;2.63;;;22.60;88.90;;;22.65;70.71;96937.59;5048597;28;20033;-49
2022/08/05 02:34:03;;;;;;;4.43;2.08;;;22.60;89.70;;;22.62;70.90;96939.72;5043671;28;20082;-51
2022/08/05 02:36:31;;;;;;;4.60;2.10;;;22.60;90.00;;;22.48;72.03;96923.00;5048373;28;23701;-47
2022/08/05 02:38:59;;;;;;;5.20;2.65;;;22.50;90.10;;;22.55;71.82;96936.72;5043823;28;20376;-48
2022/08/05 02:41:26;;;;;;;4.50;1.98;;;22.50;90.20;;;22.52;71.75;96934.31;5047363;28;20037;-48
2022/08/05 02:43:55;;;;;;;3.30;2.33;;;22.50;90.30;;;22.48;71.94;96935.59;5043537;28;20123;-48
2022/08/05 02:46:21;;;;;;;3.65;2.10;;;22.40;90.30;;;22.45;72.52;96943.94;5046154;28;20083;-48
2022/08/05 02:48:48;;;;;;;3.20;2.25;;;22.40;90.50;;;22.41;72.52;96940.69;5045662;28;20040;-49
2022/08/05 02:51:15;;;;;;;3.58;2.15;;;22.40;90.60;;;22.27;73.10;96928.56;5049198;28;20139;-49
2022/08/05 02:53:41;;;;;;;3.90;2.00;;;22.30;90.70;;;22.33;73.33;96945.09;5046331;28;20052;-51
2022/08/05 02:56:11;;;;;;;2.90;2.17;;;22.30;91.00;;;22.30;73.73;96943.53;5050532;28;20041;-52
2022/08/05 02:58:41;;;;;;;4.18;2.20;;;22.20;91.10;;;22.27;74.40;96941.13;5046224;28;20094;-49
2022/08/05 03:01:16;;;;;;;2.60;2.40;;;22.20;91.40;;;22.23;74.67;96945.88;5042453;28;20123;-49
2022/08/05 03:03:42;;;;;;;3.45;2.20;;;22.20;91.60;;;22.18;75.48;96950.00;5041095;28;20033;-48
2022/08/05 03:06:10;;;;;;;2.97;1.90;;;22.10;91.80;;;22.16;75.34;96952.81;5048133;28;20400;-50
2022/08/05 03:08:38;;;;;;;2.97;2.10;;;22.00;91.90;;;22.08;75.59;96944.63;5048003;28;20033;-48
2022/08/05 03:11:23;;;;;;;7.45;2.90;;;22.00;92.00;;;22.14;75.25;96954.78;5051328;28;20369;-48
2022/08/05 03:13:50;;;;;;;7.90;2.50;;;22.10;92.00;;;22.15;75.48;96969.09;5044945;28;20033;-48
2022/08/05 03:16:17;;;;;;;8.30;2.55;;;22.10;92.00;;;22.13;75.46;96963.84;5039153;28;20044;-48
2022/08/05 03:18:42;;;;;;;3.30;2.47;;;22.10;92.10;;;22.15;75.56;96974.47;5028243;28;20759;-50
2022/08/05 03:21:09;;;;;;;6.82;2.78;;;22.00;92.10;;;22.10;75.84;96966.81;5041619;28;20037;-51
2022/08/05 03:23:36;;;;;;;7.13;2.80;;;22.10;92.30;;;22.14;75.43;96970.06;5038333;28;20029;-48
2022/08/05 03:26:02;;;;;;;4.00;2.72;;;22.00;92.20;;;22.11;75.28;96968.53;5042789;28;20530;-47
2022/08/05 03:28:29;;;;;;;3.67;2.40;;;22.10;92.20;;;22.15;75.43;96974.47;5047953;28;20033;-48
2022/08/05 03:30:58;;;;;;;5.72;2.55;;;22.00;92.30;;;22.17;75.77;96985.91;5043592;28;20040;-48
2022/08/05 03:33:24;;;;;;;9.77;2.38;;;22.10;92.30;;;22.17;75.64;96986.75;5037668;28;20029;-48
2022/08/05 03:35:50;;;;;;;4.18;2.72;;;22.10;92.40;;;22.17;75.50;96976.00;5030000;28;20071;-47
2022/08/05 03:38:16;;;;;;;4.20;2.60;;;22.10;92.40;;;22.18;75.27;96980.41;5029059;28;20083;-48
2022/08/05 03:40:43;;;;;;;4.55;2.22;;;22.10;92.40;;;22.11;75.41;96963.16;5032920;28;20256;-48
2022/08/05 03:43:09;;;;;;;7.30;2.55;;;22.10;92.50;;;22.10;75.82;96969.50;5030017;28;20037;-47
2022/08/05 03:45:35;;;;;;;3.30;2.22;;;22.00;92.70;;;22.07;76.46;96975.13;5027917;28;20043;-48
2022/08/05 03:48:00;;;;;;;6.45;2.85;;;21.90;92.80;;;22.03;76.78;96973.72;5033956;28;20037;-51
2022/08/05 03:51:05;;;;;;;3.15;2.20;;;21.90;93.00;;;22.00;76.69;96955.19;5026103;28;20078;-50
2022/08/05 03:53:38;;;;;;;3.72;2.28;;;21.90;93.10;;;21.95;78.19;96957.44;5023417;28;20059;-51
2022/08/05 03:56:16;;;;;;;3.50;2.28;;;21.80;93.60;;;21.89;78.95;96951.66;5031418;28;20451;-50
2022/08/05 03:58:45;;;;;;;2.33;2.13;;;21.80;93.90;;;21.84;79.42;96948.53;5032810;28;20025;-48
2022/08/05 04:01:13;;;;;;;3.60;2.20;;;21.80;94.20;;;21.82;80.00;96953.22;5032373;28;20028;-51
2022/08/05 04:03:43;;;;;;;4.78;2.63;;;21.70;94.40;;;21.81;80.18;96959.56;5045338;28;20044;-47
2022/08/05 04:06:09;;;;;;;3.13;2.30;;;21.70;94.60;;;21.75;80.57;96946.69;5035074;28;20045;-48
2022/08/05 04:08:36;;;;;;;4.30;2.30;;;21.70;94.70;;;21.79;80.06;96963.38;5030159;28;20029;-47
2022/08/05 04:11:02;;;;;;;4.13;2.70;;;21.70;94.60;;;21.81;79.74;96970.28;5033737;28;20029;-47
2022/08/05 04:13:29;;;;;;;5.25;2.60;;;21.70;94.70;;;21.83;79.55;96959.41;5031071;28;20258;-50
2022/08/05 04:15:55;;;;;;;5.72;2.83;;;21.70;94.70;;;21.84;79.63;96961.97;5027618;28;20115;-47
2022/08/05 04:18:24;;;;;;;5.63;2.40;;;21.80;94.70;;;21.87;79.75;96953.63;5029014;28;20037;-47
2022/08/05 04:20:57;;;;;;;3.95;2.40;;;21.80;94.70;;;21.89;80.25;96966.91;5031531;28;20533;-49
2022/08/05 04:23:25;;;;;;;3.33;2.40;;;21.80;95.00;;;21.87;80.48;96971.56;5030776;28;20029;-47
2022/08/05 04:25:51;;;;;;;6.00;3.03;;;21.80;95.20;;;21.87;81.07;96983.16;5032504;28;20836;-48
2022/08/05 04:28:19;;;;;;;5.10;2.28;;;21.80;95.40;;;21.88;80.63;97003.66;5030913;28;20496;-48
2022/08/05 04:30:45;;;;;;;3.38;2.40;;;21.80;95.40;;;21.87;80.59;97022.56;5033502;28;20095;-48
2022/08/05 04:33:12;;;;;;;3.17;2.70;;;21.80;95.40;;;21.93;80.13;97035.47;5035122;28;20029;-48
2022/08/05 04:35:38;;;;;;;4.88;2.88;;;21.90;95.30;;;21.95;80.40;97046.03;5026392;28;20036;-47
2022/08/05 04:38:04;;;;;;;5.00;2.78;;;21.90;95.50;;;21.93;79.89;97054.25;5032112;28;20045;-49
2022/08/05 04:40:36;;;;;;;5.97;2.58;;;21.90;95.30;;;21.90;80.06;97060.72;5035825;28;20280;-48
2022/08/05 04:43:03;;;;;;;6.30;2.88;;;21.90;95.40;;;21.87;79.95;97070.88;5034035;28;20377;-47
2022/08/05 04:45:29;;;;;;;5.53;2.80;;;21.80;95.50;;;21.85;80.40;97073.69;5036502;28;20319;-50
2022/08/05 04:48:04;;;;;;;9.82;2.85;;;21.80;95.60;;;21.83;80.54;97085.56;5034171;28;20064;-47
2022/08/05 04:50:30;;;;;;;4.25;2.92;;;21.80;95.70;;;21.81;80.67;97101.81;5032519;28;20029;-47
2022/08/05 04:52:56;;;;;;;4.80;2.70;;;21.80;95.80;;;21.80;80.66;97108.13;5032188;28;20036;-47
2022/08/05 04:55:22;;;;;;;5.10;2.78;;;21.80;95.80;;;21.82;80.64;97098.16;5033616;28;20037;-48
2022/08/05 04:57:47;;;;;;;6.50;2.05;;;21.80;96.00;;;21.81;81.47;97088.38;5035929;28;20148;-51
2022/08/05 05:00:14;;;;;;;5.53;2.85;;;21.80;96.20;;;21.80;81.97;97105.47;5029075;28;20134;-47
2022/08/05 05:02:39;;;;;;;7.07;3.20;;;21.70;96.50;;;21.76;82.97;97125.50;5028772;28;20899;-47
2022/08/05 05:05:06;;;;;;;6.25;2.70;;;21.70;96.70;;;21.79;83.27;97148.56;5032274;28;20051;-49
2022/08/05 05:07:31;;;;;;;5.43;3.15;;;21.70;96.90;;;21.76;83.34;97156.88;5028615;28;20456;-49
2022/08/05 05:09:57;;;;;;;8.60;3.22;;;21.80;97.10;;;21.77;82.63;97156.75;5033872;28;20055;-50
2022/08/05 05:12:23;;;;;;;4.25;2.55;;;21.70;97.10;;;21.82;82.37;97159.88;5031970;28;21916;-49
2022/08/05 05:14:48;;;;;;;4.28;2.88;;;21.80;97.10;;;21.91;82.05;97161.75;5027582;28;20121;-49
2022/08/05 05:17:14;;;;;;;6.20;3.25;;;21.90;97.00;;;22.10;80.29;97165.53;5034216;28;20111;-49
2022/08/05 05:19:40;;;;;;;5.03;2.88;;;22.00;96.60;;;22.25;80.44;97171.38;5026330;28;20040;-48
2022/08/05 05:22:06;;;;;;;4.55;2.75;;;22.20;96.60;;;22.38;79.29;97174.72;5029870;28;20025;-47
2022/08/05 05:24:32;;;;;;;5.47;2.92;;;22.30;96.30;;;22.43;79.19;97179.66;5028047;28;20043;-50
2022/08/05 05:26:58;;;;;;;8.27;3.20;;;22.40;96.20;;;22.48;78.63;97172.06;5030443;28;20491;-49
2022/08/05 05:29:24;;;;;;;5.10;2.75;;;22.40;96.10;;;22.50;78.13;97167.38;5032817;28;20764;-48
2022/08/05 05:31:49;;;;;;;6.18;3.13;;;22.50;96.00;;;22.61;78.41;97183.44;5032542;28;20044;-50
2022/08/05 05:34:15;;;;;;;5.53;3.20;;;22.60;96.10;;;22.67;78.22;97187.41;5030048;28;20033;-47
2022/08/05 05:36:41;;;;;;;5.03;2.92;;;22.60;96.00;;;22.75;77.50;97184.00;5027888;28;20341;-48
2022/08/05 05:39:06;;;;;;;4.68;2.90;;;22.70;95.80;;;22.78;77.73;97183.75;5030272;28;20052;-48
2022/08/05 05:41:32;;;;;;;5.25;3.03;;;22.70;95.80;;;22.90;77.50;97203.28;5029156;28;20389;-47
2022/08/05 05:43:58;;;;;;;7.65;3.85;;;22.80;95.80;;;22.81;77.24;97178.94;5026621;28;20346;-49
2022/08/05 05:46:24;;;;;;;5.15;3.45;;;22.90;95.70;;;23.00;77.13;97196.94;5028251;28;20049;-49
2022/08/05 05:48:49;;;;;;;5.78;3.30;;;22.90;95.70;;;23.10;76.69;97199.69;5031269;28;20033;-50
2022/08/05 05:51:23;;;;;;;5.82;3.13;;;23.00;95.70;;;23.23;76.22;97205.63;5026966;28;20037;-48
2022/08/05 05:53:50;;;;;;;5.75;3.38;;;23.10;95.50;;;23.36;75.48;97208.03;5030276;28;20326;-47
2022/08/05 05:56:19;;;;;;;8.10;3.58;;;23.30;95.40;;;23.51;75.28;97216.53;5033406;28;20033;-49
2022/08/05 05:58:46;;;;;;;8.75;3.40;;;23.40;95.40;;;23.63;74.24;97223.47;5033782;28;20401;-48
2022/08/05 06:01:13;;;;;;;7.75;4.00;;;23.50;95.00;;;23.78;73.15;97218.50;5032500;28;20116;-48
2022/08/05 06:03:40;;;;;;;5.35;3.30;;;23.60;94.60;;;23.79;72.70;97217.47;5032005;28;20388;-52
2022/08/05 06:06:06;;;;;;;4.75;3.35;;;23.70;94.50;;;23.89;72.17;97219.38;5028141;28;20033;-47
2022/08/05 06:08:32;;;;;;;8.10;3.75;;;23.80;94.40;;;24.00;71.63;97227.28;5030147;28;20469;-48
2022/08/05 06:10:58;;;;;;;4.57;2.83;;;23.90;94.10;;;24.12;70.64;97236.91;5028529;28;20044;-55
2022/08/05 06:13:24;;;;;;;8.35;3.28;;;24.00;93.90;;;24.19;70.04;97237.13;5026313;28;20032;-48
2022/08/05 06:15:50;;;;;;;7.88;3.28;;;24.10;93.60;;;24.18;69.84;97227.38;5016819;28;20310;-51
2022/08/05 06:18:15;;;;;;;4.43;3.38;;;24.10;93.50;;;24.25;69.19;97228.50;5014726;28;20033;-50
2022/08/05 06:20:41;;;;;;;9.35;3.75;;;24.20;93.40;;;24.34;68.83;97218.69;5024386;28;20165;-48
2022/08/05 06:23:07;;;;;;;4.70;3.13;;;24.20;93.20;;;24.44;68.03;97224.84;5018122;28;20523;-50
2022/08/05 06:25:32;;;;;;;6.55;3.50;;;24.40;93.10;;;24.52;66.35;97218.75;5027225;28;20055;-49
2022/08/05 06:27:58;;;;;;;3.42;2.80;;;24.50;92.50;;;24.62;66.29;97216.03;5025952;28;20068;-49
2022/08/05 06:30:25;;;;;;;5.97;3.22;;;24.50;92.30;;;24.72;66.23;97217.66;5019087;28;20051;-51
2022/08/05 06:32:52;;;;;;;4.40;3.17;;;24.60;92.20;;;24.86;65.35;97212.78;5025683;28;20041;-49
2022/08/05 06:35:18;;;;;;;5.75;2.80;;;24.70;92.00;;;24.95;65.63;97212.72;5027026;28;20056;-49
2022/08/05 06:37:44;;;;;;;5.35;3.58;;;24.90;92.10;;;25.03;63.96;97216.50;5028615;28;20099;-50
2022/08/05 06:40:11;;;;;;;3.17;2.60;;;24.90;91.60;;;25.12;63.99;97223.69;5030856;28;20493;-47
2022/08/05 06:42:37;;;;;;;3.70;2.92;;;25.00;91.50;;;25.18;63.38;97219.53;5030314;28;20071;-49
2022/08/05 06:45:04;;;;;;;6.65;2.67;;;25.10;91.30;;;25.29;63.30;97220.19;5037260;28;20033;-52
2022/08/05 06:47:30;;;;;;;5.30;2.90;;;25.10;91.20;;;25.41;61.77;97219.94;5021573;28;20409;-48
2022/08/05 06:49:56;;;;;;;5.78;2.67;;;25.30;90.70;;;25.55;61.41;97216.72;5032227;28;20025;-50
2022/08/05 06:52:22;;;;;;;7.70;3.13;;;25.40;90.50;;;25.72;61.05;97217.72;5025263;28;20045;-49
2022/08/05 06:54:48;;;;;;;4.47;2.40;;;25.60;90.60;;;25.92;60.31;97218.38;5024821;28;20037;-49
2022/08/05 06:57:15;;;;;;;6.03;3.05;;;25.80;90.30;;;26.06;59.39;97219.69;5029870;28;20033;-48
2022/08/05 06:59:41;;;;;;;6.53;2.83;;;25.90;90.00;;;26.17;58.92;97221.28;5029391;28;20051;-50
2022/08/05 07:02:07;;;;;;;5.18;2.72;;;25.90;89.40;;;26.08;57.43;97218.50;5031196;28;20148;-48
2022/08/05 07:04:33;;;;;;;4.45;3.20;;;25.90;88.50;;;25.92;58.01;97238.13;5013408;28;20044;-47
2022/08/05 07:06:59;;;;;;;2.88;2.55;;;25.80;87.90;;;25.79;58.63;97242.22;5013178;28;20856;-50
2022/08/05 07:09:24;;;;;;;5.72;2.80;;;25.60;89.40;;;25.64;61.27;97236.53;5015046;28;20033;-49
2022/08/05 07:11:50;;;;;;;5.18;2.72;;;25.50;90.00;;;25.69;60.22;97247.72;5029757;28;20033;-49
2022/08/05 07:17:01;;;;;;;5.68;3.05;;;25.60;88.10;;;25.87;57.59;97267.44;5025258;28;20059;-50
2022/08/05 07:19:27;;;;;;;7.90;2.85;;;25.70;87.30;;;25.99;56.55;97259.16;5028677;28;20487;-50
2022/08/05 07:21:54;;;;;;;3.55;2.40;;;25.90;87.10;;;26.23;55.75;97271.97;5039347;22;20699;-43
2022/08/05 07:24:20;;;;;;;4.20;2.58;;;26.00;86.50;;;26.44;55.30;97264.34;5005095;28;20168;-43
2022/08/05 07:26:46;;;;;;;3.75;2.72;;;26.20;86.50;;;26.64;55.99;97275.81;5011413;28;20030;-44
2022/08/05 07:29:13;;;;;;;5.30;3.10;;;26.40;86.70;;;26.84;54.11;97273.72;5012525;28;20429;-44
2022/08/05 07:31:39;;;;;;;2.78;2.03;;;26.60;85.70;;;27.09;54.15;97267.56;5005685;28;20033;-46
2022/08/05 07:34:05;;;;;;;3.22;2.38;;;26.90;85.50;;;27.37;52.69;97284.44;5006235;28;20079;-42
2022/08/05 07:36:32;;;;;;;5.07;2.70;;;27.10;84.40;;;27.47;52.66;97278.84;5008699;28;20087;-43
2022/08/05 07:39:00;;;;;;;6.78;3.08;;;27.20;83.60;;;27.46;50.58;97277.16;5011488;28;20376;-45
2022/08/05 07:41:26;;;;;;;5.22;2.50;;;27.20;82.40;;;27.50;49.60;97273.97;5002821;28;20091;-46
2022/08/05 07:43:53;;;;;;;7.82;2.67;;;27.20;81.00;;;27.57;48.95;97272.28;4985298;28;20649;-44
2022/08/05 07:46:19;;;;;;;6.65;2.45;;;27.30;79.90;;;27.64;48.50;97275.16;5003933;28;20021;-43
2022/08/05 07:48:45;;;;;;;5.00;2.67;;;27.30;79.30;;;27.59;47.63;97280.25;4988368;28;20530;-44
2022/08/05 07:51:11;;;;;;;3.15;2.22;;;27.40;78.40;;;27.53;48.34;97279.03;5004392;28;20132;-42
2022/08/05 07:53:36;;;;;;;4.60;2.72;;;27.30;78.20;;;27.53;47.86;97275.47;4988232;28;20143;-43
2022/08/05 07:56:03;;;;;;;5.15;2.42;;;27.30;78.50;;;27.42;46.39;97266.66;4985156;28;20040;-43
2022/08/05 07:58:29;;;;;;;5.63;2.58;;;27.30;77.00;;;27.55;47.92;97277.00;5004922;28;20040;-43
2022/08/05 08:00:55;;;;;;;4.13;2.20;;;27.40;78.40;;;27.52;45.80;97280.03;5005369;28;20034;-42
2022/08/05 08:03:20;;;;;;;3.00;2.08;;;27.40;75.50;;;27.58;46.50;97282.09;5007356;28;20128;-44
2022/08/05 08:05:49;;;;;;;2.28;1.65;;;27.30;76.40;;;27.70;46.21;97274.50;5003969;28;20393;-46
2022/08/05 08:08:16;;;;;;;2.50;1.80;;;27.40;76.00;;;27.78;46.02;97285.34;5009701;28;20108;-43
2022/08/05 08:10:41;;;;;;;3.15;2.00;;;27.50;75.40;;;27.79;43.85;97272.63;4988298;28;20390;-43
2022/08/05 08:13:07;;;;;;;2.67;1.92;;;27.60;73.20;;;27.86;43.58;97278.25;4998147;28;20096;-43
2022/08/05 08:15:33;;;;;;;2.60;1.85;;;27.60;72.70;;;27.85;42.73;97276.53;4992126;28;20060;-44
2022/08/05 08:17:58;;;;;;;1.98;1.80;;;27.70;71.70;;;27.78;43.08;97270.94;4987860;28;20798;-42
2022/08/05 08:20:25;;;;;;;3.17;1.70;;;27.70;71.20;;;27.83;42.98;97283.97;4991097;28;20034;-44
2022/08/05 08:22:53;;;;;;;3.60;1.92;;;27.70;71.40;;;27.74;42.90;97269.56;5009973;28;20138;-44
2022/08/05 08:25:19;;;;;;;4.07;2.45;;;27.70;70.70;;;27.59;42.76;97282.94;5005197;28;20041;-44
2022/08/05 08:27:45;;;;;;;3.22;1.95;;;27.60;71.10;;;27.57;43.17;97274.16;5009469;28;20129;-45
2022/08/05 08:30:11;;;;;;;3.42;2.05;;;27.50;70.80;;;27.55;44.16;97268.88;5013153;28;20075;-45
2022/08/05 08:32:37;;;;;;;3.17;2.00;;;27.50;71.40;;;27.76;43.74;97279.25;5007605;28;20033;-46
2022/08/05 08:35:04;;;;;;;2.35;1.83;;;27.60;71.60;;;27.83;42.85;97273.97;5010862;28;20040;-43
2022/08/05 08:37:29;;;;;;;2.45;1.88;;;27.70;70.50;;;27.96;42.71;97268.94;5004966;28;21040;-44
2022/08/05 08:39:55;;;;;;;2.20;1.80;;;27.80;71.10;;;27.97;44.29;97259.78;5003543;28;20055;-43
2022/08/05 08:42:22;;;;;;;3.83;1.90;;;27.80;71.70;;;27.98;42.00;97260.66;5003510;28;20044;-45
2022/08/05 08:44:49;;;;;;;8.20;2.25;;;27.80;69.50;;;28.00;41.98;97264.03;4988714;28;20029;-45
2022/08/05 08:47:18;;;;;;;2.38;1.67;;;27.90;69.00;;;28.08;41.92;97246.91;5002067;28;20259;-45
2022/08/05 08:49:45;;;;;;;3.72;1.80;;;28.00;69.40;;;28.27;41.52;97251.13;4992227;28;20029;-43
2022/08/05 08:52:17;;;;;;;4.32;1.80;;;28.20;68.40;;;28.42;41.22;97240.44;4990554;28;20835;-42
2022/08/05 08:54:43;;;;;;;3.17;2.15;;;28.30;68.20;;;28.50;41.28;97235.81;5006916;28;20187;-44
2022/08/05 08:57:10;;;;;;;3.42;1.77;;;28.40;67.90;;;28.63;40.98;97239.91;5004989;28;20060;-44
2022/08/05 08:59:37;;;;;;;2.90;1.80;;;28.40;67.70;;;28.73;41.33;97238.66;4987889;28;20753;-45
2022/08/05 09:02:05;;;;;;;3.25;1.80;;;28.50;68.10;;;28.72;40.63;97236.97;5011190;28;20654;-41
2022/08/05 09:04:37;;;;;;;2.25;1.60;;;28.60;67.20;;;28.89;41.05;97243.19;5013176;28;20039;-41
2022/08/05 09:07:07;;;;;;;2.38;1.75;;;28.60;67.50;;;28.87;39.86;97239.78;5012123;28;20032;-43
2022/08/05 09:09:35;;;;;;;2.75;1.80;;;28.70;66.10;;;28.96;39.83;97218.88;5008085;28;20244;-43
2022/08/05 09:12:04;;;;;;;3.03;1.80;;;28.80;66.10;;;28.82;38.72;97227.75;5015280;28;20041;-42
2022/08/05 09:14:37;;;;;;;1.88;1.60;;;28.80;63.70;;;28.91;40.03;97208.56;4987155;28;20033;-42
2022/08/05 09:17:07;;;;;;;2.95;1.88;;;28.80;65.20;;;29.08;38.82;97217.47;5007656;28;20095;-44
2022/08/05 09:19:34;;;;;;;4.45;1.77;;;28.90;64.80;;;29.16;39.34;97208.44;5009800;28;20048;-43
2022/08/05 09:22:00;;;;;;;2.55;1.77;;;29.00;64.80;;;29.25;38.78;97204.69;5008413;28;20033;-44
2022/08/05 09:24:25;;;;;;;2.70;1.83;;;29.00;65.30;;;29.35;38.51;97204.44;4998341;28;20385;-48
2022/08/05 09:26:55;;;;;;;2.50;1.60;;;29.20;64.10;;;29.42;37.82;97204.56;5007949;28;20127;-46
2022/08/05 09:29:46;;;;;;;3.92;1.88;;;29.20;62.80;;;29.31;37.67;97212.09;5000379;28;20065;-43
2022/08/05 09:32:11;;;;;;;2.05;1.83;;;29.20;62.30;;;29.30;38.30;97204.13;4992012;28;20340;-42
2022/08/05 09:34:54;;;;;;;2.78;1.80;;;29.10;63.40;;;29.35;38.26;97203.59;5008214;28;20045;-42
2022/08/05 09:37:24;;;;;;;1.70;1.60;;;29.20;62.50;;;29.40;38.32;97202.03;5008773;28;20288;-40
2022/08/05 09:39:50;;;;;;;3.85;1.80;;;29.20;62.80;;;29.39;38.15;97197.59;4993938;28;20033;-39
2022/08/05 09:42:18;;;;;;;3.55;1.90;;;29.20;62.60;;;29.29;38.19;97194.31;5011822;28;20680;-46
2022/08/05 09:44:47;;;;;;;3.72;1.80;;;29.10;62.50;;;29.22;38.04;97187.91;5010918;28;20029;-44
2022/08/05 09:47:19;;;;;;;2.13;1.80;;;29.00;62.50;;;29.21;37.99;97180.78;5007584;28;20069;-42
2022/08/05 09:49:56;;;;;;;2.40;1.65;;;29.00;62.50;;;29.23;38.01;97184.97;5011342;28;20330;-43
2022/08/05 09:52:33;;;;;;;1.63;1.40;;;29.00;62.20;;;29.31;38.57;97189.53;5012667;28;20041;-43
2022/08/05 09:55:11;;;;;;;2.35;1.85;;;29.10;62.90;;;29.42;38.07;97189.09;5014125;28;20057;-43
2022/08/05 09:57:44;;;;;;;3.10;2.05;;;29.20;62.70;;;29.39;38.13;97189.47;5006760;28;20034;-45
2022/08/05 10:00:14;;;;;;;3.25;1.92;;;29.20;62.00;;;29.30;37.65;97198.69;5009217;28;20063;-43
2022/08/05 10:02:48;;;;;;;3.25;2.20;;;29.20;60.80;;;29.23;37.28;97190.41;5012498;28;20044;-43
2022/08/05 10:05:22;;;;;;;1.98;1.80;;;29.00;60.90;;;29.27;37.81;97188.19;5001321;28;20075;-43
2022/08/05 10:07:59;;;;;;;3.97;2.13;;;29.00;61.90;;;29.30;37.25;97190.53;5008024;28;20498;-44
2022/08/05 10:10:38;;;;;;;4.03;1.80;;;29.10;61.10;;;29.33;37.33;97192.06;5009570;28;20040;-45
2022/08/05 10:13:05;;;;;;;2.13;1.65;;;29.20;60.80;;;29.44;36.42;97197.91;4998194;28;20060;-45
2022/08/05 10:15:40;;;;;;;2.53;1.70;;;29.20;60.00;;;29.40;36.54;97191.16;4993254;28;20041;-43
2022/08/05 10:18:18;;;;;;;2.65;1.50;;;29.20;59.30;;;29.47;36.78;97183.97;4997305;28;20055;-44
2022/08/05 10:20:52;;;;;;;2.03;1.50;;;29.20;59.80;;;29.55;36.89;97174.06;4997539;28;20575;-43
2022/08/05 10:23:31;;;;;;;2.22;1.80;;;29.30;60.40;;;29.66;36.69;97170.91;5002628;28;20424;-43
2022/08/05 10:26:00;;;;;;;5.18;1.70;;;29.40;60.00;;;29.57;36.03;97178.28;5001208;28;20036;-43
2022/08/05 10:28:28;;;;;;;3.22;1.83;;;29.50;59.30;;;29.64;36.39;97181.97;5007783;28;20163;-46
2022/08/05 10:30:55;;;;;;;3.45;1.73;;;29.40;59.30;;;29.70;36.08;97167.66;5009458;28;20487;-42
2022/08/05 10:33:24;;;;;;;1.60;1.50;;;29.50;59.30;;;29.73;35.79;97173.75;5009052;28;20057;-42